createdAt,value
2019-02-08T00:56:53.055Z,15.00
2019-02-08T00:59:21.726Z,15.63
2019-02-08T01:01:51.967Z,14.83
2019-02-08T01:04:20.650Z,16.63
2019-02-08T01:06:49.280Z,17.77
2019-02-08T01:09:17.919Z,16.57
2019-02-08T01:11:47.066Z,17.03
2019-02-08T01:14:15.695Z,15.63
2019-02-08T01:16:44.365Z,17.73
2019-02-08T01:19:13.040Z,18.07
2019-02-08T01:21:41.729Z,17.03
2019-02-08T01:24:10.364Z,16.57
2019-02-08T01:26:38.930Z,16.73
2019-02-08T01:29:07.575Z,16.90
2019-02-08T01:31:36.244Z,18.40
2019-02-08T01:34:11.132Z,17.60
2019-02-08T01:36:42.543Z,17.07
2019-02-08T01:39:11.084Z,16.53
2019-02-08T01:41:39.728Z,15.80
2019-02-08T01:44:08.362Z,15.70
2019-02-08T01:46:36.991Z,15.77
2019-02-08T01:49:05.658Z,14.87
2019-02-08T01:51:37.252Z,16.57
2019-02-08T01:54:05.909Z,18.20
2019-02-08T01:56:34.535Z,16.87
2019-02-08T01:59:03.212Z,16.90
2019-02-08T02:01:31.837Z,18.07
2019-02-08T02:04:00.506Z,19.03
2019-02-08T02:06:29.142Z,17.77
2019-02-08T02:08:57.759Z,17.70
2019-02-08T02:11:26.388Z,18.67
2019-02-08T02:13:55.022Z,19.13
2019-02-08T02:16:23.698Z,19.70
2019-02-08T02:18:52.398Z,19.93
2019-02-08T02:21:20.954Z,19.23
2019-02-08T02:23:56.003Z,20.27
2019-02-08T02:26:19.977Z,19.10
2019-02-08T02:28:48.640Z,18.87
2019-02-08T02:31:17.258Z,19.83
2019-02-08T02:33:45.958Z,18.73
2019-02-08T02:36:14.604Z,19.63
2019-02-08T02:38:43.236Z,21.63
2019-02-08T02:41:11.941Z,20.43
2019-02-08T02:43:40.618Z,18.20
2019-02-08T02:46:09.242Z,20.53
2019-02-08T02:48:37.932Z,20.60
2019-02-08T02:51:06.613Z,21.13
2019-02-08T02:53:35.232Z,20.83
2019-02-08T02:56:03.849Z,20.20
2019-02-08T02:58:32.477Z,21.40
2019-02-08T03:01:01.213Z,21.03
2019-02-08T03:03:29.854Z,20.27
2019-02-08T03:05:58.481Z,20.53
2019-02-08T03:08:27.156Z,19.93
2019-02-08T03:10:55.786Z,20.33
2019-02-08T03:13:24.475Z,19.60
2019-02-08T03:15:53.096Z,20.20
2019-02-08T03:18:21.767Z,20.13
2019-02-08T03:20:50.390Z,20.53
2019-02-08T03:23:19.025Z,20.33
2019-02-08T03:25:47.666Z,21.43
2019-02-08T03:28:16.302Z,22.00
2019-02-08T03:30:49.858Z,21.47
2019-02-08T03:33:18.555Z,22.27
2019-02-08T03:35:47.247Z,19.60
2019-02-08T03:38:15.904Z,21.13
2019-02-08T03:40:44.526Z,21.47
2019-02-08T03:43:13.159Z,22.23
2019-02-08T03:45:43.491Z,21.03
2019-02-08T03:48:12.561Z,20.90
2019-02-08T03:50:41.365Z,22.50
2019-02-08T03:53:10.299Z,21.63
2019-02-08T03:55:39.047Z,22.93
2019-02-08T03:58:08.722Z,23.40
2019-02-08T04:00:42.245Z,22.13
2019-02-08T04:03:10.908Z,23.43
2019-02-08T04:05:39.627Z,20.97
2019-02-08T04:08:09.099Z,22.67
2019-02-08T04:10:37.724Z,23.03
2019-02-08T04:13:06.467Z,26.20
2019-02-08T04:15:35.080Z,25.70
2019-02-08T04:18:03.839Z,23.27
2019-02-08T04:20:32.457Z,22.03
2019-02-08T04:23:01.140Z,22.63
2019-02-08T04:25:29.767Z,23.97
2019-02-08T04:27:58.407Z,22.37
2019-02-08T04:30:34.361Z,24.40
2019-02-08T04:33:03.509Z,24.57
2019-02-08T04:35:32.148Z,26.10
2019-02-08T04:38:00.798Z,26.77
2019-02-08T04:40:29.498Z,27.40
2019-02-08T04:42:58.243Z,26.33
2019-02-08T04:45:26.897Z,27.30
2019-02-08T04:47:55.685Z,27.13
2019-02-08T04:50:26.766Z,28.57
2019-02-08T04:52:55.897Z,27.00
2019-02-08T04:55:24.548Z,28.27
2019-02-08T04:57:53.181Z,26.27
2019-02-08T05:00:33.643Z,26.27
2019-02-08T05:03:02.297Z,23.97
2019-02-08T05:05:30.989Z,23.80
2019-02-08T05:07:59.614Z,24.67
2019-02-08T05:10:30.955Z,25.83
2019-02-08T05:12:59.747Z,25.27
2019-02-08T05:15:28.465Z,25.80
2019-02-08T05:17:57.200Z,23.13
2019-02-08T05:20:31.913Z,22.83
2019-02-08T05:23:00.837Z,23.83
2019-02-08T05:25:29.533Z,24.67
2019-02-08T05:27:58.209Z,25.20
2019-02-08T05:30:29.046Z,27.13
2019-02-08T05:32:57.609Z,27.60
2019-02-08T05:35:26.694Z,28.83
2019-02-08T05:37:55.418Z,27.47
2019-02-08T05:40:24.249Z,26.50
2019-02-08T05:42:53.042Z,29.60
2019-02-08T05:45:24.868Z,29.43
2019-02-08T05:47:53.534Z,30.47
2019-02-08T05:50:25.313Z,30.07
2019-02-08T05:52:54.223Z,27.90
2019-02-08T05:55:44.458Z,31.47
2019-02-08T05:58:34.556Z,27.00
2019-02-08T06:01:39.607Z,27.17
2019-02-08T06:04:27.979Z,32.35
2019-02-08T06:07:35.775Z,27.80
2019-02-08T06:10:23.555Z,32.10
2019-02-08T06:13:28.079Z,31.83
2019-02-08T06:16:18.966Z,29.00
2019-02-08T06:19:25.261Z,32.60
2019-02-08T06:21:54.019Z,27.73
2019-02-08T06:24:25.585Z,27.33
2019-02-08T06:26:54.255Z,27.87
2019-02-08T06:29:23.124Z,26.57
2019-02-08T06:31:51.827Z,27.90
2019-02-08T06:34:20.682Z,32.40
2019-02-08T06:36:50.544Z,35.10
2019-02-08T06:39:19.312Z,33.03
2019-02-08T06:41:48.083Z,36.37
2019-02-08T06:44:19.545Z,33.83
2019-02-08T06:46:48.316Z,34.70
2019-02-08T06:49:17.037Z,34.60
2019-02-08T06:51:48.575Z,32.43
2019-02-08T06:54:17.407Z,31.47
2019-02-08T06:56:57.929Z,29.53
2019-02-08T06:59:28.216Z,28.77
2019-02-08T07:02:08.483Z,29.67
2019-02-08T07:04:41.822Z,30.37
2019-02-08T07:07:15.288Z,27.90
2019-02-08T07:09:45.735Z,30.00
2019-02-08T07:12:31.108Z,27.60
2019-02-08T07:15:09.731Z,28.63
2019-02-08T07:17:50.336Z,26.23
2019-02-08T07:20:20.909Z,23.80
2019-02-08T07:23:04.470Z,26.40
2019-02-08T07:25:36.973Z,26.07
2019-02-08T07:28:09.970Z,27.57
2019-02-08T07:30:42.047Z,35.27
2019-02-08T07:33:21.776Z,35.83
2019-02-08T07:35:55.412Z,33.00
2019-02-08T07:38:29.677Z,37.27
2019-02-08T07:41:17.793Z,36.70
2019-02-08T07:43:51.120Z,32.57
2019-02-08T07:46:22.227Z,31.30
2019-02-08T07:49:01.301Z,32.53
2019-02-08T07:51:32.070Z,31.67
2019-02-08T07:54:03.226Z,29.77
2019-02-08T07:56:50.060Z,28.07
2019-02-08T07:59:23.074Z,26.10
2019-02-08T08:01:53.268Z,26.07
2019-02-08T08:04:26.566Z,29.63
2019-02-08T08:06:58.028Z,29.43
2019-02-08T08:09:46.591Z,31.43
2019-02-08T08:12:30.712Z,22.80
2019-02-08T08:15:06.430Z,21.90
2019-02-08T08:17:36.697Z,23.50
2019-02-08T08:20:12.603Z,25.83
2019-02-08T08:22:44.820Z,23.97
2019-02-08T08:25:16.576Z,19.80
2019-02-08T08:27:58.951Z,19.93
2019-02-08T08:30:40.774Z,23.90
2019-02-08T08:33:16.663Z,21.40
2019-02-08T08:36:03.363Z,22.53
2019-02-08T08:38:46.581Z,20.60
2019-02-08T08:41:43.712Z,18.83
2019-02-08T08:44:31.845Z,18.00
2019-02-08T08:47:21.866Z,17.80
2019-02-08T08:50:10.076Z,17.37
2019-02-08T08:53:04.595Z,18.20
2019-02-08T08:55:48.061Z,19.63
2019-02-08T08:58:22.271Z,20.83
2019-02-08T09:00:56.960Z,22.33
2019-02-08T09:03:40.631Z,25.93
2019-02-08T09:06:24.461Z,24.07
2019-02-08T09:08:59.087Z,24.73
2019-02-08T09:11:45.531Z,24.90
2019-02-08T09:14:50.588Z,27.07
2019-02-08T09:17:44.762Z,23.20
2019-02-08T09:20:27.590Z,24.27
2019-02-08T09:23:16.705Z,23.93
2019-02-08T09:26:07.828Z,23.50
2019-02-08T09:28:56.299Z,25.27
2019-02-08T09:31:55.059Z,24.77
2019-02-08T09:34:42.978Z,23.57
2019-02-08T09:37:41.827Z,26.57
2019-02-08T09:40:32.873Z,28.20
2019-02-08T09:43:07.294Z,26.13
2019-02-08T09:46:03.157Z,25.70
2019-02-08T09:48:56.785Z,25.23
2019-02-08T09:51:47.214Z,24.67
2019-02-08T09:54:39.936Z,24.43
2019-02-08T09:57:23.558Z,25.90
2019-02-08T10:00:03.902Z,27.60
2019-02-08T10:03:02.234Z,27.90
2019-02-08T10:05:50.118Z,28.83
2019-02-08T10:08:40.630Z,28.23
2019-02-08T10:11:12.216Z,29.50
2019-02-08T10:13:52.571Z,26.27
2019-02-08T10:16:49.313Z,26.43
2019-02-08T10:19:32.721Z,26.20
2019-02-08T10:22:23.522Z,27.83
2019-02-08T10:25:20.718Z,30.73
2019-02-08T10:28:01.354Z,24.43
2019-02-08T10:30:48.184Z,26.40
2019-02-08T10:33:40.918Z,26.43
2019-02-08T10:36:21.525Z,29.73
2019-02-08T10:39:13.954Z,30.67
2019-02-08T10:41:54.603Z,30.27
2019-02-08T10:44:34.322Z,31.00
2019-02-08T10:47:39.156Z,31.27
2019-02-08T10:50:37.816Z,35.33
2019-02-08T10:53:09.505Z,40.10
2019-02-08T10:56:15.210Z,36.97
2019-02-08T10:59:09.657Z,27.63
2019-02-08T11:02:02.154Z,35.30
2019-02-08T11:04:45.703Z,39.17
2019-02-08T11:07:37.398Z,35.90
2019-02-08T11:10:45.142Z,30.90
2019-02-08T11:16:36.999Z,29.53
2019-02-08T11:19:20.244Z,31.50
2019-02-08T11:21:50.124Z,32.90
2019-02-08T11:24:21.654Z,31.83
2019-02-08T11:26:50.474Z,32.10
2019-02-08T11:29:19.363Z,31.07
2019-02-08T11:31:48.176Z,29.47
2019-02-08T11:34:16.858Z,28.83
2019-02-08T11:36:48.344Z,29.63
2019-02-08T11:39:18.425Z,28.40
2019-02-08T11:41:47.697Z,28.37
2019-02-08T11:44:16.757Z,30.93
2019-02-08T11:46:45.604Z,29.23
2019-02-08T11:49:14.403Z,29.03
2019-02-08T11:51:43.326Z,31.80
2019-02-08T11:54:12.254Z,31.33
2019-02-08T11:56:41.142Z,30.47
2019-02-08T11:59:09.759Z,32.60
2019-02-08T12:01:42.453Z,30.30
2019-02-08T12:04:11.409Z,31.77
2019-02-08T12:06:40.159Z,32.43
2019-02-08T12:09:11.303Z,31.80
2019-02-08T12:11:40.033Z,31.80
2019-02-08T12:14:09.255Z,30.17
2019-02-08T12:16:41.035Z,32.80
2019-02-08T12:19:09.806Z,30.67
2019-02-08T12:21:38.645Z,34.87
2019-02-08T12:24:07.432Z,30.33
2019-02-08T12:26:37.869Z,31.47
2019-02-08T12:29:08.635Z,31.80
2019-02-08T12:31:37.375Z,33.30
2019-02-08T12:34:06.141Z,32.17
2019-02-08T12:36:36.376Z,30.00
2019-02-08T12:39:07.994Z,32.33
2019-02-08T12:41:36.813Z,33.10
2019-02-08T12:44:05.643Z,29.47
2019-02-08T12:46:34.239Z,30.77
2019-02-08T12:49:02.825Z,29.47
2019-02-08T12:51:34.713Z,29.60
2019-02-08T12:54:03.465Z,27.20
2019-02-08T12:56:32.165Z,27.33
2019-02-08T12:59:03.545Z,29.20
2019-02-08T13:01:37.586Z,27.63
2019-02-08T13:04:03.449Z,30.37
2019-02-08T13:06:32.282Z,30.37
2019-02-08T13:09:00.894Z,32.47
2019-02-08T13:11:29.557Z,33.70
2019-02-08T13:13:58.192Z,30.17
2019-02-08T13:16:26.833Z,30.77
2019-02-08T13:18:55.484Z,30.73
2019-02-08T13:21:24.149Z,30.13
2019-02-08T13:23:53.810Z,28.40
2019-02-08T13:26:22.842Z,29.17
2019-02-08T13:28:54.660Z,28.80
2019-02-08T13:31:23.381Z,27.13
2019-02-08T13:33:52.331Z,31.00
2019-02-08T13:36:20.965Z,28.60
2019-02-08T13:38:49.613Z,30.40
2019-02-08T13:41:21.164Z,29.50
2019-02-08T13:43:50.009Z,31.37
2019-02-08T13:46:18.754Z,30.27
2019-02-08T13:48:47.484Z,30.33
2019-02-08T13:51:16.754Z,31.00
2019-02-08T13:53:49.126Z,30.87
2019-02-08T13:56:17.797Z,30.23
2019-02-08T13:58:46.573Z,26.73
2019-02-08T14:01:15.487Z,30.33
2019-02-08T14:03:44.287Z,29.37
2019-02-08T14:06:13.258Z,30.80
2019-02-08T14:08:41.923Z,31.93
2019-02-08T14:11:10.526Z,28.00
2019-02-08T14:13:40.794Z,28.63
2019-02-08T14:16:12.282Z,28.70
2019-02-08T14:18:40.979Z,27.83
2019-02-08T14:21:09.683Z,26.80
2019-02-08T14:23:38.284Z,24.47
2019-02-08T14:26:06.961Z,23.77
2019-02-08T14:28:35.951Z,24.53
2019-02-08T14:31:04.565Z,23.00
2019-02-08T14:33:33.684Z,21.23
2019-02-08T14:36:05.350Z,23.20
2019-02-08T14:38:35.593Z,21.80
2019-02-08T14:41:04.348Z,21.87
2019-02-08T14:43:33.047Z,25.03
2019-02-08T14:46:01.615Z,23.10
2019-02-08T14:48:30.284Z,23.23
2019-02-08T14:50:58.986Z,23.80
2019-02-08T14:53:27.874Z,23.83
2019-02-08T14:55:56.494Z,24.40
2019-02-08T14:58:25.168Z,25.17
2019-02-08T15:00:53.838Z,27.77
2019-02-08T15:03:25.496Z,25.57
2019-02-08T15:05:54.312Z,23.87
2019-02-08T15:08:22.948Z,25.20
2019-02-08T15:10:52.575Z,26.33
2019-02-08T15:13:22.047Z,25.23
2019-02-08T15:15:51.079Z,28.27
2019-02-08T15:18:19.714Z,26.57
2019-02-08T15:20:48.333Z,29.13
2019-02-08T15:23:17.111Z,37.50
2019-02-08T15:25:45.739Z,39.87
2019-02-08T15:28:14.383Z,39.50
2019-02-08T15:30:46.031Z,36.77
2019-02-08T15:33:14.747Z,39.00
2019-02-08T15:35:43.870Z,39.80
2019-02-08T15:38:12.492Z,41.33
2019-02-08T15:40:54.040Z,43.37
2019-02-08T15:43:23.208Z,37.53
2019-02-08T15:45:58.014Z,41.83
2019-02-08T15:48:29.674Z,46.33
2019-02-08T15:50:58.397Z,45.43
2019-02-08T15:53:27.026Z,46.40
2019-02-08T15:56:07.484Z,47.23
2019-02-08T15:58:36.755Z,45.47
2019-02-08T16:01:08.824Z,50.47
2019-02-08T16:03:37.617Z,49.37
2019-02-08T16:06:06.461Z,54.20
2019-02-08T16:08:35.566Z,55.50
2019-02-08T16:11:04.744Z,50.97
2019-02-08T16:13:33.376Z,50.97
2019-02-08T16:16:04.926Z,51.20
2019-02-08T16:18:33.565Z,54.77
2019-02-08T16:21:02.243Z,49.40
2019-02-08T16:23:30.931Z,49.43
2019-02-08T16:25:59.589Z,51.63
2019-02-08T16:28:28.814Z,49.53
2019-02-08T16:30:57.547Z,51.87
2019-02-08T16:33:26.108Z,56.97
2019-02-08T16:35:54.720Z,56.17
2019-02-08T16:38:32.246Z,60.73
2019-02-08T16:41:01.400Z,47.57
2019-02-08T16:43:33.100Z,51.10
2019-02-08T16:46:05.023Z,53.90
2019-02-08T16:48:35.026Z,60.40
2019-02-08T16:51:03.828Z,60.83
2019-02-08T16:53:32.463Z,60.33
2019-02-08T16:56:01.096Z,57.33
2019-02-08T16:58:33.251Z,61.30
2019-02-08T17:01:08.977Z,63.10
2019-02-08T17:03:37.640Z,58.83
2019-02-08T17:06:06.420Z,54.47
2019-02-08T17:08:35.015Z,57.37
2019-02-08T17:11:07.947Z,66.17
2019-02-08T17:13:36.573Z,55.90
2019-02-08T17:16:05.681Z,49.83
2019-02-08T17:18:39.012Z,47.83
2019-02-08T17:21:07.838Z,45.63
2019-02-08T17:23:36.409Z,47.20
2019-02-08T17:26:09.107Z,51.87
2019-02-08T17:28:37.743Z,46.87
2019-02-08T17:31:06.376Z,49.23
2019-02-08T17:33:38.536Z,53.23
2019-02-08T17:36:07.185Z,54.87
2019-02-08T17:38:35.964Z,47.63
2019-02-08T17:41:06.210Z,49.20
2019-02-08T17:43:34.855Z,44.73
2019-02-08T17:46:06.554Z,46.30
2019-02-08T17:48:36.623Z,45.90
2019-02-08T17:51:05.366Z,50.03
2019-02-08T17:53:36.643Z,45.63
2019-02-08T17:56:08.191Z,45.43
2019-02-08T17:58:36.747Z,44.77
2019-02-08T18:01:05.927Z,45.23
2019-02-08T18:03:34.532Z,47.00
2019-02-08T18:06:03.218Z,48.20
2019-02-08T18:08:31.782Z,49.77
2019-02-08T18:11:03.442Z,48.00
2019-02-08T18:13:32.191Z,49.73
2019-02-08T18:16:03.942Z,50.10
2019-02-08T18:18:32.814Z,50.23
2019-02-08T18:21:02.079Z,49.80
2019-02-08T18:23:30.723Z,47.67
2019-02-08T18:25:59.412Z,51.30
2019-02-08T18:28:28.043Z,49.70
2019-02-08T18:30:56.683Z,51.27
2019-02-08T18:33:25.954Z,51.60
2019-02-08T18:35:58.927Z,54.07
2019-02-08T18:38:27.618Z,57.37
2019-02-08T18:41:01.734Z,59.00
2019-02-08T18:43:40.268Z,59.63
2019-02-08T18:46:09.565Z,61.77
2019-02-08T18:48:38.280Z,65.10
2019-02-08T18:51:07.036Z,67.87
2019-02-08T18:53:37.142Z,69.27
2019-02-08T18:56:06.504Z,84.90
2019-02-08T18:58:38.089Z,83.33
2019-02-08T19:01:09.914Z,83.70
2019-02-08T19:03:38.542Z,84.07
2019-02-08T19:06:13.151Z,70.20
2019-02-08T19:08:41.786Z,70.10
2019-02-08T19:11:13.544Z,66.57
2019-02-08T19:13:42.179Z,62.80
2019-02-08T19:16:13.594Z,61.63
2019-02-08T19:18:42.423Z,61.30
2019-02-08T19:21:11.241Z,66.93
2019-02-08T19:23:40.001Z,55.80
2019-02-08T19:26:08.668Z,55.20
2019-02-08T19:28:37.329Z,64.67
2019-02-08T19:31:05.960Z,61.37
2019-02-08T19:33:37.305Z,70.07
2019-02-08T19:36:09.247Z,68.10
2019-02-08T19:38:37.948Z,51.63
2019-02-08T19:41:06.580Z,46.40
2019-02-08T19:43:35.326Z,48.87
2019-02-08T19:46:04.108Z,42.97
2019-02-08T19:48:32.749Z,41.70
2019-02-08T19:51:01.375Z,40.27
2019-02-08T19:53:30.033Z,38.47
2019-02-08T19:56:01.750Z,38.97
2019-02-08T19:58:34.649Z,39.43
2019-02-08T20:01:00.991Z,42.53
2019-02-08T20:03:29.630Z,41.90
2019-02-08T20:05:58.310Z,40.27
2019-02-08T20:08:30.001Z,37.80
2019-02-08T20:11:01.512Z,35.80
2019-02-08T20:13:30.009Z,36.20
2019-02-08T20:15:58.725Z,34.93
2019-02-08T20:18:30.033Z,34.50
2019-02-08T20:20:59.504Z,36.07
2019-02-08T20:23:28.153Z,34.97
2019-02-08T20:25:56.967Z,37.23
2019-02-08T20:28:25.548Z,36.67
2019-02-08T20:30:54.307Z,37.63
2019-02-08T20:33:22.862Z,39.00
2019-02-08T20:35:57.035Z,36.37
2019-02-08T20:38:25.672Z,37.37
2019-02-08T20:40:54.322Z,38.83
2019-02-08T20:43:23.138Z,34.83
2019-02-08T20:45:52.595Z,35.23
2019-02-08T20:48:22.331Z,31.87
2019-02-08T20:50:51.088Z,30.13
2019-02-08T20:53:19.857Z,30.60
2019-02-08T20:55:48.579Z,31.57
2019-02-08T20:58:19.996Z,27.87
2019-02-08T21:00:51.695Z,27.17
2019-02-08T21:03:21.047Z,29.23
2019-02-08T21:05:50.727Z,30.00
2019-02-08T21:08:20.032Z,28.80
2019-02-08T21:10:48.869Z,28.33
2019-02-08T21:13:17.786Z,28.53
2019-02-08T21:15:52.730Z,30.50
2019-02-08T21:18:21.344Z,30.33
2019-02-08T21:20:49.989Z,31.63
2019-02-08T21:23:18.663Z,28.23
2019-02-08T21:25:51.815Z,35.00
2019-02-08T21:28:17.640Z,33.87
2019-02-08T21:30:46.861Z,33.80
2019-02-08T21:33:15.504Z,30.63
2019-02-08T21:35:44.247Z,30.93
2019-02-08T21:38:16.017Z,31.07
2019-02-08T21:40:44.856Z,31.53
2019-02-08T21:43:16.207Z,30.30
2019-02-08T21:45:45.436Z,30.77
2019-02-08T21:48:17.406Z,33.30
2019-02-08T21:50:46.085Z,41.57
2019-02-08T21:53:14.747Z,41.83
2019-02-08T21:55:43.380Z,42.00
2019-02-08T21:58:12.041Z,43.90
2019-02-08T22:00:42.861Z,42.00
2019-02-08T22:03:11.496Z,43.37
2019-02-08T22:05:49.042Z,45.67
2019-02-08T22:08:17.678Z,48.93
2019-02-08T22:10:46.358Z,48.03
2019-02-08T22:13:15.034Z,45.77
2019-02-08T22:15:45.085Z,44.30
2019-02-08T22:18:13.742Z,43.57
2019-02-08T22:20:42.412Z,43.37
2019-02-08T22:23:11.071Z,40.07
2019-02-08T22:25:39.695Z,40.20
2019-02-08T22:28:08.472Z,37.27
2019-02-08T22:30:37.120Z,26.67
2019-02-08T22:33:11.150Z,21.73
2019-02-08T22:35:40.065Z,19.70
2019-02-08T22:38:09.244Z,20.13
2019-02-08T22:40:37.972Z,22.03
2019-02-08T22:43:06.931Z,25.60
2019-02-08T22:45:44.856Z,22.50
2019-02-08T22:48:13.508Z,24.03
2019-02-08T22:50:42.145Z,23.37
2019-02-08T22:53:10.805Z,22.17
2019-02-08T22:55:39.401Z,21.10
2019-02-08T22:58:09.047Z,20.17
2019-02-08T23:00:42.297Z,18.63
2019-02-08T23:03:17.491Z,27.90
2019-02-08T23:05:46.322Z,36.00
2019-02-08T23:08:14.843Z,41.50
2019-02-08T23:10:43.583Z,42.87
2019-02-08T23:13:12.928Z,41.00
2019-02-08T23:15:44.559Z,38.73
2019-02-08T23:18:13.289Z,30.53
2019-02-08T23:20:41.894Z,23.33
2019-02-08T23:23:10.619Z,24.77
2019-02-08T23:25:39.293Z,24.57
2019-02-08T23:28:08.026Z,20.33
2019-02-08T23:30:36.766Z,17.67
2019-02-08T23:33:06.016Z,16.20
2019-02-08T23:35:41.832Z,16.07
2019-02-08T23:38:05.104Z,17.73
2019-02-08T23:40:33.768Z,16.60
2019-02-08T23:43:02.464Z,16.00
2019-02-08T23:45:31.101Z,19.13
2019-02-08T23:47:59.789Z,24.20
2019-02-08T23:50:28.425Z,24.20
2019-02-08T23:52:57.050Z,24.27
2019-02-08T23:55:26.793Z,24.83
2019-02-08T23:57:55.416Z,25.63
